createdAt,value
2023-04-07T00:00:04.980Z,10.03
2023-04-07T00:03:09.039Z,10.07
2023-04-07T00:06:12.631Z,10.00
2023-04-07T00:09:16.231Z,9.30
2023-04-07T00:12:19.684Z,9.60
2023-04-07T00:15:24.620Z,9.50
2023-04-07T00:18:28.125Z,9.37
2023-04-07T00:21:31.603Z,10.17
2023-04-07T00:24:35.088Z,10.23
2023-04-07T00:27:38.713Z,9.53
2023-04-07T00:30:43.585Z,9.00
2023-04-07T00:33:48.506Z,9.47
2023-04-07T00:36:52.567Z,10.00
2023-04-07T00:39:57.237Z,9.23
2023-04-07T00:43:00.786Z,9.00
2023-04-07T00:46:05.958Z,9.43
2023-04-07T00:49:11.436Z,9.27
2023-04-07T00:52:17.132Z,8.93
2023-04-07T00:55:20.791Z,9.13
2023-04-07T00:58:24.226Z,9.33
2023-04-07T01:01:41.029Z,9.57
2023-04-07T01:04:52.650Z,8.83
2023-04-07T01:08:14.904Z,9.93
2023-04-07T01:11:26.053Z,9.80
2023-04-07T01:14:38.606Z,9.20
2023-04-07T01:17:49.565Z,9.60
2023-04-07T01:21:01.947Z,9.03
2023-04-07T01:24:43.639Z,8.77
2023-04-07T01:28:11.835Z,9.17
2023-04-07T01:31:18.481Z,9.33
2023-04-07T01:34:26.287Z,9.33
2023-04-07T01:37:30.937Z,10.33
2023-04-07T01:40:36.952Z,9.50
2023-04-07T01:43:43.903Z,8.87
2023-04-07T01:46:51.710Z,8.93
2023-04-07T01:49:57.638Z,9.07
2023-04-07T01:53:01.743Z,9.83
2023-04-07T01:56:06.360Z,9.00
2023-04-07T01:59:09.811Z,9.70
2023-04-07T02:02:14.937Z,9.70
2023-04-07T02:05:23.864Z,9.13
2023-04-07T02:08:31.161Z,9.53
2023-04-07T02:11:38.713Z,9.27
2023-04-07T02:14:43.156Z,9.77
2023-04-07T02:17:53.115Z,8.93
2023-04-07T02:20:58.461Z,9.97
2023-04-07T02:24:03.174Z,9.40
2023-04-07T02:27:06.621Z,8.93
2023-04-07T02:30:11.640Z,9.20
2023-04-07T02:33:16.652Z,9.13
2023-04-07T02:36:20.402Z,9.50
2023-04-07T02:39:23.889Z,9.33
2023-04-07T02:42:27.357Z,9.00
2023-04-07T02:45:31.028Z,8.93
2023-04-07T02:48:35.905Z,8.77
2023-04-07T02:51:39.395Z,9.47
2023-04-07T02:54:42.859Z,8.70
2023-04-07T02:57:46.521Z,8.77
2023-04-07T03:00:50.929Z,10.00
2023-04-07T03:03:56.281Z,10.30
2023-04-07T03:07:00.046Z,9.30
2023-04-07T03:10:03.641Z,9.37
2023-04-07T03:13:08.382Z,9.87
2023-04-07T03:16:13.048Z,9.70
2023-04-07T03:19:17.958Z,9.93
2023-04-07T03:22:21.589Z,10.00
2023-04-07T03:25:25.053Z,10.17
2023-04-07T03:28:28.504Z,9.83
2023-04-07T03:31:32.066Z,9.47
2023-04-07T03:34:36.956Z,10.00
2023-04-07T03:37:40.481Z,10.10
2023-04-07T03:40:43.935Z,10.67
2023-04-07T03:43:47.394Z,10.30
2023-04-07T03:46:51.273Z,10.77
2023-04-07T03:49:56.236Z,9.97
2023-04-07T03:52:59.676Z,10.00
2023-04-07T03:56:03.378Z,11.17
2023-04-07T03:59:07.522Z,11.50
2023-04-07T04:02:11.170Z,10.63
2023-04-07T04:05:16.332Z,9.93
2023-04-07T04:08:19.914Z,9.97
2023-04-07T04:11:23.638Z,10.17
2023-04-07T04:14:27.156Z,9.43
2023-04-07T04:17:31.026Z,10.60
2023-04-07T04:20:37.410Z,10.50
2023-04-07T04:23:40.988Z,10.47
2023-04-07T04:26:44.485Z,9.50
2023-04-07T04:29:48.905Z,9.63
2023-04-07T04:32:52.575Z,10.80
2023-04-07T04:35:57.550Z,10.87
2023-04-07T04:39:00.979Z,11.00
2023-04-07T04:42:04.935Z,10.83
2023-04-07T04:45:10.188Z,11.33
2023-04-07T04:48:13.692Z,10.57
2023-04-07T04:51:18.562Z,11.13
2023-04-07T04:54:22.113Z,11.20
2023-04-07T04:57:25.659Z,10.67
2023-04-07T05:00:29.351Z,10.90
2023-04-07T05:03:33.128Z,10.23
2023-04-07T05:06:38.161Z,11.03
2023-04-07T05:09:41.691Z,10.87
2023-04-07T05:12:45.557Z,10.83
2023-04-07T05:15:49.402Z,11.13
2023-04-07T05:18:52.964Z,11.07
2023-04-07T05:21:57.948Z,10.23
2023-04-07T05:25:01.616Z,11.67
2023-04-07T05:28:05.561Z,12.23
2023-04-07T05:31:09.182Z,10.37
2023-04-07T05:34:13.114Z,10.53
2023-04-07T05:37:17.944Z,10.70
2023-04-07T05:40:21.742Z,10.80
2023-04-07T05:43:25.308Z,10.30
2023-04-07T05:46:30.275Z,12.73
2023-04-07T05:49:33.755Z,10.67
2023-04-07T05:52:38.622Z,10.50
2023-04-07T05:55:44.777Z,10.47
2023-04-07T05:58:48.356Z,10.13
2023-04-07T06:01:52.023Z,11.73
2023-04-07T06:04:56.247Z,10.20
2023-04-07T06:08:01.216Z,10.30
2023-04-07T06:11:05.383Z,9.83
2023-04-07T06:14:09.190Z,9.80
2023-04-07T06:17:12.878Z,9.83
2023-04-07T06:20:16.559Z,9.67
2023-04-07T06:23:21.691Z,9.80
2023-04-07T06:26:25.350Z,10.63
2023-04-07T06:29:28.991Z,9.50
2023-04-07T06:32:33.472Z,10.67
2023-04-07T06:35:37.265Z,10.33
2023-04-07T06:38:43.827Z,9.43
2023-04-07T06:41:47.460Z,10.10
2023-04-07T06:44:50.994Z,9.30
2023-04-07T06:47:54.722Z,9.70
2023-04-07T06:50:58.392Z,9.77
2023-04-07T06:54:04.504Z,8.87
2023-04-07T06:57:12.052Z,9.80
2023-04-07T07:00:16.615Z,9.67
2023-04-07T07:03:20.792Z,10.10
2023-04-07T07:06:25.378Z,9.43
2023-04-07T07:09:31.619Z,8.60
2023-04-07T07:12:35.158Z,8.77
2023-04-07T07:15:38.743Z,8.20
2023-04-07T07:18:42.252Z,9.00
2023-04-07T07:21:46.084Z,29.37
2023-04-07T07:24:51.448Z,8.67
2023-04-07T07:27:55.000Z,8.70
2023-04-07T07:30:58.534Z,8.67
2023-04-07T07:34:02.174Z,7.80
2023-04-07T07:37:05.672Z,8.57
2023-04-07T07:40:11.495Z,9.33
2023-04-07T07:43:18.089Z,8.13
2023-04-07T07:46:22.317Z,8.50
2023-04-07T07:49:26.126Z,7.77
2023-04-07T07:52:29.642Z,7.50
2023-04-07T07:55:34.740Z,8.57
2023-04-07T07:58:38.483Z,7.77
2023-04-07T08:01:42.062Z,7.47
2023-04-07T08:04:46.013Z,7.67
2023-04-07T08:07:50.438Z,7.53
2023-04-07T08:10:56.003Z,8.03
2023-04-07T08:13:59.555Z,8.27
2023-04-07T08:17:03.248Z,7.60
2023-04-07T08:20:10.427Z,7.07
2023-04-07T08:23:14.106Z,6.97
2023-04-07T08:26:19.195Z,7.33
2023-04-07T08:29:22.690Z,7.13
2023-04-07T08:32:26.340Z,7.67
2023-04-07T08:35:29.982Z,7.50
2023-04-07T08:38:33.524Z,6.93
2023-04-07T08:41:40.977Z,7.13
2023-04-07T08:44:47.058Z,7.50
2023-04-07T08:47:56.834Z,6.57
2023-04-07T08:51:05.835Z,7.07
2023-04-07T08:54:13.392Z,6.87
2023-04-07T08:57:19.581Z,6.93
2023-04-07T09:00:23.315Z,6.93
2023-04-07T09:03:28.876Z,6.40
2023-04-07T09:06:33.241Z,6.93
2023-04-07T09:09:36.883Z,5.97
2023-04-07T09:12:42.073Z,5.87
2023-04-07T09:15:46.155Z,6.20
2023-04-07T09:18:49.796Z,6.47
2023-04-07T09:21:54.533Z,6.67
2023-04-07T09:25:13.042Z,6.47
2023-04-07T09:28:17.968Z,5.93
2023-04-07T09:31:22.360Z,7.20
2023-04-07T09:34:28.838Z,6.10
2023-04-07T09:37:32.569Z,6.90
2023-04-07T09:40:37.417Z,6.37
2023-04-07T09:43:46.101Z,6.43
2023-04-07T09:46:52.750Z,6.37
2023-04-07T09:49:59.452Z,7.23
2023-04-07T09:53:04.745Z,6.93
2023-04-07T09:56:10.002Z,6.53
2023-04-07T09:59:18.434Z,6.40
2023-04-07T10:02:23.303Z,6.00
2023-04-07T10:05:28.024Z,6.27
2023-04-07T10:08:35.180Z,5.83
2023-04-07T10:11:39.249Z,6.30
2023-04-07T10:14:47.205Z,5.57
2023-04-07T10:17:52.270Z,5.83
2023-04-07T10:20:57.953Z,6.07
2023-04-07T10:24:20.194Z,5.83
2023-04-07T10:27:35.253Z,6.77
2023-04-07T10:30:42.098Z,6.63
2023-04-07T10:33:52.368Z,6.20
2023-04-07T10:37:14.427Z,6.33
2023-04-07T10:40:31.401Z,6.30
2023-04-07T10:43:45.024Z,5.90
2023-04-07T10:47:07.751Z,6.50
2023-04-07T10:50:22.859Z,6.00
2023-04-07T10:53:26.366Z,5.60
2023-04-07T10:57:21.312Z,5.93
2023-04-07T11:00:25.514Z,6.37
2023-04-07T11:03:32.596Z,6.40
2023-04-07T11:06:36.286Z,6.30
2023-04-07T11:09:39.918Z,6.00
2023-04-07T11:12:43.857Z,6.60
2023-04-07T11:15:52.259Z,6.37
2023-04-07T11:18:59.138Z,6.10
2023-04-07T11:25:27.779Z,6.33
2023-04-07T11:28:32.538Z,5.97
2023-04-07T11:31:36.416Z,6.20
2023-04-07T11:34:41.777Z,6.40
2023-04-07T11:37:45.736Z,5.97
2023-04-07T11:40:49.644Z,6.70
2023-04-07T11:44:07.471Z,6.00
2023-04-07T11:47:10.971Z,6.30
2023-04-07T11:50:16.122Z,6.60
2023-04-07T11:53:30.576Z,5.80
2023-04-07T11:56:46.138Z,6.67
2023-04-07T11:59:49.847Z,6.60
2023-04-07T12:02:53.720Z,6.50
2023-04-07T12:05:58.786Z,6.60
2023-04-07T12:09:03.654Z,5.63
2023-04-07T12:12:10.539Z,6.43
2023-04-07T12:15:14.339Z,6.27
2023-04-07T12:18:19.189Z,6.43
2023-04-07T12:21:24.481Z,5.93
2023-04-07T12:24:28.661Z,6.57
2023-04-07T12:27:42.777Z,6.50
2023-04-07T12:30:47.441Z,6.63
2023-04-07T12:33:51.533Z,6.83
2023-04-07T12:36:56.561Z,6.20
2023-04-07T12:40:00.719Z,6.60
2023-04-07T12:43:04.330Z,5.83
2023-04-07T12:46:07.961Z,5.77
2023-04-07T12:49:11.688Z,5.67
2023-04-07T12:52:16.940Z,5.43
2023-04-07T12:55:20.632Z,6.00
2023-04-07T12:58:24.593Z,6.00
2023-04-07T13:01:28.358Z,5.70
2023-04-07T13:04:32.327Z,5.87
2023-04-07T13:07:37.991Z,5.40
2023-04-07T13:10:41.561Z,4.97
2023-04-07T13:13:45.494Z,4.67
2023-04-07T13:16:49.631Z,4.80
2023-04-07T13:19:53.230Z,4.70
2023-04-07T13:23:07.865Z,4.37
2023-04-07T13:26:13.101Z,4.43
2023-04-07T13:29:17.534Z,4.37
2023-04-07T13:32:21.145Z,4.43
2023-04-07T13:35:26.031Z,4.47
2023-04-07T13:38:31.009Z,4.37
2023-04-07T13:41:34.720Z,4.53
2023-04-07T13:44:39.673Z,4.47
2023-04-07T13:47:43.317Z,4.43
2023-04-07T13:50:46.990Z,4.00
2023-04-07T13:53:52.027Z,5.27
2023-04-07T13:56:55.682Z,4.90
2023-04-07T13:59:59.275Z,4.33
2023-04-07T14:03:04.399Z,4.37
2023-04-07T14:06:08.138Z,4.07
2023-04-07T14:09:12.935Z,4.40
2023-04-07T14:12:17.224Z,4.40
2023-04-07T14:15:20.703Z,3.80
2023-04-07T14:18:25.138Z,3.80
2023-04-07T14:21:28.696Z,3.73
2023-04-07T14:24:33.773Z,3.83
2023-04-07T14:27:37.281Z,3.63
2023-04-07T14:30:40.817Z,3.67
2023-04-07T14:33:44.619Z,4.20
2023-04-07T14:36:55.742Z,3.57
2023-04-07T14:40:03.089Z,3.47
2023-04-07T14:43:07.920Z,3.70
2023-04-07T14:46:12.546Z,4.10
2023-04-07T14:49:16.448Z,4.47
2023-04-07T14:52:20.654Z,4.73
2023-04-07T14:55:26.232Z,4.17
2023-04-07T14:58:29.791Z,3.90
2023-04-07T15:01:33.534Z,4.07
2023-04-07T15:04:37.246Z,3.87
2023-04-07T15:07:40.832Z,4.27
2023-04-07T15:10:46.032Z,3.83
2023-04-07T15:13:50.274Z,4.10
2023-04-07T15:16:54.205Z,4.70
2023-04-07T15:19:57.825Z,3.50
2023-04-07T15:23:01.716Z,4.13
2023-04-07T15:26:07.157Z,3.73
2023-04-07T15:29:11.772Z,3.60
2023-04-07T15:32:15.401Z,3.50
2023-04-07T15:35:20.237Z,3.50
2023-04-07T15:38:23.787Z,4.10
2023-04-07T15:41:28.759Z,3.53
2023-04-07T15:44:39.418Z,3.90
2023-04-07T15:47:44.164Z,3.50
2023-04-07T15:50:48.029Z,3.60
2023-04-07T15:53:51.840Z,4.50
2023-04-07T15:56:56.737Z,3.67
2023-04-07T16:00:00.305Z,4.10
2023-04-07T16:03:04.158Z,3.50
2023-04-07T16:06:07.843Z,4.00
2023-04-07T16:09:11.530Z,3.77
2023-04-07T16:12:16.646Z,3.93
2023-04-07T16:15:41.073Z,3.77
2023-04-07T16:18:45.188Z,3.23
2023-04-07T16:21:48.658Z,4.10
2023-04-07T16:24:52.213Z,3.30
2023-04-07T16:27:58.329Z,3.87
2023-04-07T16:31:02.588Z,3.80
2023-04-07T16:34:06.216Z,3.37
2023-04-07T16:37:09.689Z,3.60
2023-04-07T16:40:14.507Z,3.47
2023-04-07T16:43:19.734Z,3.60
2023-04-07T16:46:25.969Z,3.40
2023-04-07T16:49:29.863Z,3.20
2023-04-07T16:52:33.923Z,3.03
2023-04-07T16:55:37.717Z,3.87
2023-04-07T16:58:42.720Z,3.03
2023-04-07T17:01:46.247Z,3.10
2023-04-07T17:04:49.972Z,2.87
2023-04-07T17:07:54.344Z,2.83
2023-04-07T17:10:59.247Z,2.83
2023-04-07T17:14:04.197Z,2.73
2023-04-07T17:17:07.792Z,2.67
2023-04-07T17:20:13.391Z,2.77
2023-04-07T17:23:17.630Z,3.10
2023-04-07T17:26:21.279Z,2.57
2023-04-07T17:29:29.230Z,3.03
2023-04-07T17:32:32.842Z,2.97
2023-04-07T17:35:36.909Z,2.60
2023-04-07T17:38:40.461Z,2.70
2023-04-07T17:41:43.968Z,2.33
2023-04-07T17:44:52.761Z,2.27
2023-04-07T17:47:56.397Z,2.47
2023-04-07T17:51:00.123Z,3.30
2023-04-07T17:54:03.767Z,3.30
2023-04-07T17:57:08.363Z,3.30
2023-04-07T18:00:14.297Z,3.63
2023-04-07T18:03:19.246Z,3.03
2023-04-07T18:06:22.905Z,3.23
2023-04-07T18:09:26.800Z,3.70
2023-04-07T18:12:31.956Z,2.90
2023-04-07T18:15:37.213Z,2.73
2023-04-07T18:18:40.824Z,3.10
2023-04-07T18:21:44.452Z,3.17
2023-04-07T18:24:48.499Z,3.07
2023-04-07T18:27:52.328Z,3.07
2023-04-07T18:31:06.199Z,3.50
2023-04-07T18:34:10.891Z,3.10
2023-04-07T18:37:14.988Z,3.30
2023-04-07T18:40:18.995Z,3.70
2023-04-07T18:43:22.721Z,3.60
2023-04-07T18:46:28.413Z,3.97
2023-04-07T18:49:32.146Z,4.00
2023-04-07T18:52:35.852Z,3.43
2023-04-07T18:55:39.769Z,4.17
2023-04-07T18:58:46.094Z,4.80
2023-04-07T19:01:52.221Z,4.63
2023-04-07T19:04:56.177Z,4.57
2023-04-07T19:08:00.402Z,4.67
2023-04-07T19:11:05.294Z,5.00
2023-04-07T19:14:08.812Z,4.90
2023-04-07T19:17:13.792Z,4.37
2023-04-07T19:20:17.380Z,4.40
2023-04-07T19:23:21.275Z,5.27
2023-04-07T19:26:25.017Z,4.63
2023-04-07T19:29:28.560Z,4.47
2023-04-07T19:32:33.963Z,4.43
2023-04-07T19:35:39.145Z,4.20
2023-04-07T19:38:42.732Z,4.30
2023-04-07T19:41:46.464Z,3.90
2023-04-07T19:44:50.380Z,4.60
2023-04-07T19:47:58.140Z,4.30
2023-04-07T19:51:01.867Z,4.30
2023-04-07T19:54:05.403Z,5.03
2023-04-07T19:57:08.992Z,4.80
2023-04-07T20:00:13.950Z,5.53
2023-04-07T20:03:19.705Z,5.07
2023-04-07T20:06:27.584Z,5.50
2023-04-07T20:09:31.075Z,5.00
2023-04-07T20:12:34.601Z,5.37
2023-04-07T20:15:38.130Z,5.77
2023-04-07T20:18:42.992Z,5.17
2023-04-07T20:21:46.677Z,5.77
2023-04-07T20:24:50.472Z,6.13
2023-04-07T20:27:53.981Z,5.63
2023-04-07T20:30:57.465Z,6.40
2023-04-07T20:34:03.506Z,6.97
2023-04-07T20:37:07.273Z,5.77
2023-04-07T20:40:12.900Z,5.73
2023-04-07T20:43:18.244Z,5.90
2023-04-07T20:46:22.141Z,6.20
2023-04-07T20:49:27.082Z,5.93
2023-04-07T20:52:30.644Z,6.73
2023-04-07T20:55:35.669Z,6.60
2023-04-07T20:58:39.248Z,6.50
2023-04-07T21:01:42.781Z,6.73
2023-04-07T21:04:48.006Z,7.30
2023-04-07T21:07:51.448Z,7.57
2023-04-07T21:10:55.875Z,7.93
2023-04-07T21:13:59.364Z,8.13
2023-04-07T21:17:03.048Z,8.20
2023-04-07T21:20:10.157Z,8.47
2023-04-07T21:23:13.734Z,8.60
2023-04-07T21:26:17.360Z,8.97
2023-04-07T21:29:22.805Z,9.07
2023-04-07T21:32:26.700Z,9.60
2023-04-07T21:35:31.729Z,9.40
2023-04-07T21:38:35.263Z,9.43
2023-04-07T21:41:38.883Z,10.40
2023-04-07T21:44:42.698Z,10.33
2023-04-07T21:47:46.610Z,10.87
2023-04-07T21:50:52.628Z,11.03
2023-04-07T21:53:56.361Z,10.50
2023-04-07T21:57:01.072Z,10.07
2023-04-07T22:00:05.247Z,9.77
2023-04-07T22:03:08.870Z,9.40
2023-04-07T22:06:14.236Z,10.23
2023-04-07T22:09:17.966Z,10.17
2023-04-07T22:12:21.474Z,10.50
2023-04-07T22:15:25.006Z,10.90
2023-04-07T22:18:28.528Z,11.53
2023-04-07T22:21:33.494Z,10.47
2023-04-07T22:24:36.971Z,11.50
2023-04-07T22:27:40.746Z,12.40
2023-04-07T22:30:44.331Z,12.10
2023-04-07T22:33:48.087Z,12.67
2023-04-07T22:36:52.907Z,14.90
2023-04-07T22:39:56.412Z,14.43
2023-04-07T22:42:59.917Z,14.33
2023-04-07T22:46:03.606Z,13.50
2023-04-07T22:49:07.488Z,13.40
2023-04-07T22:52:12.397Z,12.67
2023-04-07T22:55:16.421Z,12.53
2023-04-07T22:58:20.045Z,11.77
2023-04-07T23:01:23.605Z,11.77
2023-04-07T23:04:27.319Z,12.07
2023-04-07T23:07:32.393Z,11.40
2023-04-07T23:10:36.249Z,11.67
2023-04-07T23:13:39.697Z,11.73
2023-04-07T23:16:43.380Z,12.10
2023-04-07T23:19:47.083Z,11.90
2023-04-07T23:22:52.023Z,11.07
2023-04-07T23:25:55.746Z,10.70
2023-04-07T23:28:59.285Z,10.70
2023-04-07T23:32:03.144Z,9.77
2023-04-07T23:35:07.699Z,9.47
2023-04-07T23:38:12.605Z,10.20
2023-04-07T23:41:16.369Z,12.27
2023-04-07T23:44:19.924Z,12.47
2023-04-07T23:47:23.522Z,12.30
2023-04-07T23:50:27.915Z,11.80
2023-04-07T23:53:32.824Z,10.73
2023-04-07T23:56:36.740Z,10.70
2023-04-07T23:59:40.292Z,10.70
